^^
Station Historical Data
Daily Summary for August 19, 2021 Units:  English    Metric   Both
Daily Weekly Monthly Yearly
  High: Low: Average:
Temperature: 83.3 °F 71.5 °F 75.9 °F
Dew Point: 72.1 °F 65.8 °F 68.7 °F
Humidity: 86% 64% 79%
Wind Speed: 4mph 0mph 1mph
Wind Gust: 6mph - -
Wind- - ESE
Pressure: 30.07 in 29.95 in -
Precipitation: 0.00 in    
 
 
Tabular Data for August 19, 2021
Time Temperature Dew Point Pressure Wind Wind Speed Wind Gust Humidity Rainfall Rate (Hourly) solar
00:00 74.1 °F 67.5 °F 30.06 in East 1 mph 1 mph 80% 0.00 in 0 W/m2
00:05 74.1 °F 67.2 °F 30.06 in Calm   1 mph 79% 0.00 in 0 W/m2
00:10 74.1 °F 67.5 °F 30.06 in NE 1 mph 1 mph 80% 0.00 in 0 W/m2
00:15 74 °F 67.4 °F 30.06 in South 1 mph 1 mph 80% 0.00 in 0 W/m2
00:20 73.9 °F 67 °F 30.06 in Calm     79% 0.00 in 0 W/m2
00:25 73.8 °F 66.9 °F 30.06 in Calm     79% 0.00 in 0 W/m2
00:30 73.8 °F 66.9 °F 30.06 in Calm   1 mph 79% 0.00 in 0 W/m2
00:35 73.8 °F 66.9 °F 30.06 in Calm   1 mph 79% 0.00 in 0 W/m2
00:40 73.7 °F 66.8 °F 30.06 in Calm     79% 0.00 in 0 W/m2
00:45 73.6 °F 66.7 °F 30.06 in Calm     79% 0.00 in 0 W/m2
00:50 73.4 °F 66.5 °F 30.06 in Calm   1 mph 79% 0.00 in 0 W/m2
00:55 73.3 °F 66.8 °F 30.07 in Calm   1 mph 80% 0.00 in 0 W/m2
01:00 73.2 °F 66.7 °F 30.07 in Calm     80% 0.00 in 0 W/m2
01:05 73 °F 66.8 °F 30.07 in Calm     81% 0.00 in 0 W/m2
01:10 72.9 °F 66.7 °F 30.07 in Calm   1 mph 81% 0.00 in 0 W/m2
01:15 72.8 °F 66.6 °F 30.06 in Calm   1 mph 81% 0.00 in 0 W/m2
01:20 72.6 °F 66.4 °F 30.06 in Calm     81% 0.00 in 0 W/m2
01:25 72.5 °F 66.3 °F 30.06 in Calm     81% 0.00 in 0 W/m2
01:30 72.4 °F 66.2 °F 30.06 in Calm     81% 0.00 in 0 W/m2
01:35 72.2 °F 66.4 °F 30.06 in Calm     82% 0.00 in 0 W/m2
01:40 72.1 °F 66.3 °F 30.06 in Calm     82% 0.00 in 0 W/m2
01:45 71.9 °F 66.1 °F 30.06 in Calm     82% 0.00 in 0 W/m2
01:50 71.8 °F 66.4 °F 30.06 in Calm     83% 0.00 in 0 W/m2
01:55 71.7 °F 66.3 °F 30.06 in Calm     83% 0.00 in 0 W/m2
02:00 71.6 °F 66.2 °F 30.06 in Calm     83% 0.00 in 0 W/m2
02:05 71.7 °F 66.9 °F 30.06 in Calm   1 mph 85% 0.00 in 0 W/m2
02:10 71.9 °F 67.1 °F 30.06 in Calm     85% 0.00 in 0 W/m2
02:15 72 °F 66.9 °F 30.06 in Calm     84% 0.00 in 0 W/m2
02:20 72.2 °F 67.1 °F 30.06 in Calm     84% 0.00 in 0 W/m2
02:25 72.2 °F 67.1 °F 30.06 in Calm     84% 0.00 in 0 W/m2
02:30 72.2 °F 66.7 °F 30.06 in Calm     83% 0.00 in 0 W/m2
02:35 72.3 °F 66.8 °F 30.06 in Calm     83% 0.00 in 0 W/m2
02:40 72.3 °F 66.8 °F 30.05 in Calm     83% 0.00 in 0 W/m2
02:45 72.3 °F 66.8 °F 30.05 in Calm     83% 0.00 in 0 W/m2
02:50 72.3 °F 66.8 °F 30.05 in Calm     83% 0.00 in 0 W/m2
02:55 72.4 °F 66.9 °F 30.05 in Calm     83% 0.00 in 0 W/m2
03:00 72.5 °F 67 °F 30.05 in Calm   1 mph 83% 0.00 in 0 W/m2
03:05 72.6 °F 67.1 °F 30.05 in Calm   1 mph 83% 0.00 in 0 W/m2
03:10 72.6 °F 67.5 °F 30.05 in SE 1 mph 1 mph 84% 0.00 in 0 W/m2
03:15 72.6 °F 67.1 °F 30.05 in ESE 1 mph 1 mph 83% 0.00 in 0 W/m2
03:20 72.4 °F 66.9 °F 30.05 in ESE 1 mph 1 mph 83% 0.00 in 0 W/m2
03:25 72.3 °F 66.8 °F 30.05 in SE 1 mph 1 mph 83% 0.00 in 0 W/m2
03:30 72.3 °F 66.8 °F 30.05 in SE 1 mph 1 mph 83% 0.00 in 0 W/m2
03:35 72.2 °F 66.7 °F 30.06 in NE 1 mph 1 mph 83% 0.00 in 0 W/m2
03:40 72.1 °F 66.6 °F 30.05 in ESE 1 mph 1 mph 83% 0.00 in 0 W/m2
03:45 72 °F 66.6 °F 30.06 in ESE 1 mph 1 mph 83% 0.00 in 0 W/m2
03:50 72 °F 66.6 °F 30.06 in ESE 1 mph 1 mph 83% 0.00 in 0 W/m2
03:55 71.9 °F 66.5 °F 30.06 in SE 1 mph 1 mph 83% 0.00 in 0 W/m2
04:00 71.9 °F 66.5 °F 30.06 in SE 1 mph 1 mph 83% 0.00 in 0 W/m2
04:05 71.9 °F 66.5 °F 30.06 in ESE 1 mph 1 mph 83% 0.00 in 0 W/m2
04:10 71.9 °F 66.5 °F 30.05 in WSW 1 mph 1 mph 83% 0.00 in 0 W/m2
04:15 71.9 °F 66.5 °F 30.05 in Calm   1 mph 83% 0.00 in 0 W/m2
04:20 71.7 °F 66.3 °F 30.05 in Calm   1 mph 83% 0.00 in 0 W/m2
04:25 71.7 °F 66.3 °F 30.05 in Calm   1 mph 83% 0.00 in 0 W/m2
04:30 71.7 °F 66.3 °F 30.05 in Calm     83% 0.00 in 0 W/m2
04:35 71.8 °F 66.4 °F 30.05 in Calm   1 mph 83% 0.00 in 0 W/m2
04:40 71.7 °F 65.9 °F 30.05 in Calm     82% 0.00 in 0 W/m2
04:45 71.9 °F 66.5 °F 30.05 in Calm   1 mph 83% 0.00 in 0 W/m2
04:50 71.9 °F 66.1 °F 30.05 in Calm     82% 0.00 in 0 W/m2
04:55 71.9 °F 66.1 °F 30.05 in Calm     82% 0.00 in 0 W/m2
05:00 71.9 °F 66.1 °F 30.05 in Calm     82% 0.00 in 0 W/m2
05:05 71.9 °F 66.1 °F 30.05 in Calm     82% 0.00 in 0 W/m2
05:10 71.8 °F 66 °F 30.05 in Calm     82% 0.00 in 0 W/m2
05:15 71.9 °F 66.1 °F 30.05 in Calm     82% 0.00 in 0 W/m2
05:20 72 °F 66.2 °F 30.05 in Calm     82% 0.00 in 0 W/m2
05:25 72.1 °F 66.6 °F 30.04 in Calm   1 mph 83% 0.00 in 0 W/m2
05:30 72.1 °F 67 °F 30.04 in Calm   1 mph 84% 0.00 in 0 W/m2
05:35 72.1 °F 66.6 °F 30.05 in Calm   1 mph 83% 0.00 in 0 W/m2
05:40 72 °F 66.2 °F 30.04 in Calm     82% 0.00 in 0 W/m2
05:45 71.9 °F 65.8 °F 30.04 in Calm     81% 0.00 in 0 W/m2
05:50 71.9 °F 66.1 °F 30.04 in Calm     82% 0.00 in 0 W/m2
05:55 71.9 °F 65.8 °F 30.04 in Calm     81% 0.00 in 0 W/m2
06:00 72 °F 66.2 °F 30.04 in Calm   1 mph 82% 0.00 in 0 W/m2
06:05 72.1 °F 66.3 °F 30.04 in Calm   1 mph 82% 0.00 in 0 W/m2
06:10 72.1 °F 66.3 °F 30.04 in Calm     82% 0.00 in 0 W/m2
06:15 72.2 °F 66 °F 30.03 in Calm     81% 0.00 in 0 W/m2
06:20 72.2 °F 66 °F 30.03 in Calm     81% 0.00 in 0 W/m2
06:25 72.4 °F 66.6 °F 30.03 in Calm     82% 0.00 in 0 W/m2
06:30 72.3 °F 66.5 °F 30.04 in Calm     82% 0.00 in 0 W/m2
06:35 72.3 °F 66.8 °F 30.04 in Calm     83% 0.00 in 0 W/m2
06:40 72.5 °F 67.4 °F 30.04 in Calm     84% 0.00 in 0 W/m2
06:45 72.4 °F 67.3 °F 30.04 in Calm   1 mph 84% 0.00 in 5 W/m2
06:50 72.4 °F 67.3 °F 30.04 in Calm   1 mph 84% 0.00 in 7 W/m2
06:55 72.3 °F 67.2 °F 30.04 in Calm   1 mph 84% 0.00 in 11 W/m2
07:00 72.2 °F 67.1 °F 30.04 in Calm     84% 0.00 in 14 W/m2
07:05 72.1 °F 66.6 °F 30.04 in Calm     83% 0.00 in 16 W/m2
07:10 72.1 °F 67 °F 30.05 in Calm     84% 0.00 in 18 W/m2
07:15 72.2 °F 67.4 °F 30.05 in Calm     85% 0.00 in 21 W/m2
07:20 72.3 °F 67.5 °F 30.05 in Calm     85% 0.00 in 25 W/m2
07:25 72.2 °F 67.4 °F 30.05 in Calm   1 mph 85% 0.00 in 26 W/m2
07:30 72.1 °F 67.3 °F 30.05 in Calm   1 mph 85% 0.00 in 32 W/m2
07:35 72 °F 66.9 °F 30.05 in ESE 1 mph 1 mph 84% 0.00 in 63 W/m2
07:40 72 °F 66.9 °F 30.05 in ESE 1 mph 1 mph 84% 0.00 in 37 W/m2
07:45 71.8 °F 66.7 °F 30.05 in North 1 mph 1 mph 84% 0.00 in 46 W/m2
07:50 71.7 °F 66.6 °F 30.05 in East 1 mph 1 mph 84% 0.00 in 42 W/m2
07:55 71.7 °F 66.6 °F 30.05 in East 1 mph 1 mph 84% 0.00 in 46 W/m2
08:00 71.6 °F 66.5 °F 30.05 in ESE 1 mph 1 mph 84% 0.00 in 46 W/m2
08:05 71.5 °F 66.8 °F 30.05 in SE 1 mph 1 mph 85% 0.00 in 51 W/m2
08:10 71.6 °F 67.2 °F 30.05 in NE 1 mph 1 mph 86% 0.00 in 51 W/m2
08:15 71.6 °F 66.8 °F 30.05 in ESE 1 mph 2 mph 85% 0.00 in 51 W/m2
08:20 71.6 °F 66.8 °F 30.05 in SE 1 mph 1 mph 85% 0.00 in 56 W/m2
08:25 71.5 °F 66.8 °F 30.05 in NW 1 mph 1 mph 85% 0.00 in 181 W/m2
08:30 71.5 °F 66.8 °F 30.05 in NE 1 mph 1 mph 85% 0.00 in 193 W/m2
08:35 71.6 °F 66.8 °F 30.05 in East 1 mph 1 mph 85% 0.00 in 211 W/m2
08:40 71.7 °F 66.9 °F 30.05 in East 1 mph 1 mph 85% 0.00 in 227 W/m2
08:45 71.8 °F 67 °F 30.05 in East 1 mph 1 mph 85% 0.00 in 243 W/m2
08:50 71.9 °F 67.1 °F 30.05 in SE 1 mph 1 mph 85% 0.00 in 253 W/m2
08:55 72.1 °F 67.3 °F 30.05 in ESE 1 mph 1 mph 85% 0.00 in 267 W/m2
09:00 72.3 °F 67.5 °F 30.05 in North 1 mph 1 mph 85% 0.00 in 281 W/m2
09:05 72.4 °F 67.3 °F 30.05 in ESE 1 mph 1 mph 84% 0.00 in 287 W/m2
09:10 72.6 °F 67.8 °F 30.05 in East 1 mph 1 mph 85% 0.00 in 308 W/m2
09:15 72.8 °F 67.7 °F 30.05 in SSW 1 mph 1 mph 84% 0.00 in 322 W/m2
09:20 73 °F 67.9 °F 30.05 in SW 1 mph 1 mph 84% 0.00 in 338 W/m2
09:25 73.3 °F 68.2 °F 30.05 in WSW 1 mph 1 mph 84% 0.00 in 336 W/m2
09:30 73.4 °F 68.3 °F 30.05 in SW 1 mph 1 mph 84% 0.00 in 155 W/m2
09:35 73.6 °F 68.5 °F 30.05 in SSW 1 mph 2 mph 84% 0.00 in 178 W/m2
09:40 73.7 °F 68.6 °F 30.05 in ESE 1 mph 1 mph 84% 0.00 in 165 W/m2
09:45 73.9 °F 68.8 °F 30.05 in East 1 mph 1 mph 84% 0.00 in 139 W/m2
09:50 74 °F 68.9 °F 30.05 in East 1 mph 1 mph 84% 0.00 in 167 W/m2
09:55 74.2 °F 68.7 °F 30.05 in East 1 mph 1 mph 83% 0.00 in 178 W/m2
10:00 74.3 °F 68.8 °F 30.05 in SE 1 mph 1 mph 83% 0.00 in 172 W/m2
10:05 74.4 °F 68.2 °F 30.05 in SSW 1 mph 2 mph 81% 0.00 in 408 W/m2
10:10 74.5 °F 68.3 °F 30.05 in SE 1 mph 1 mph 81% 0.00 in 482 W/m2
10:15 74.8 °F 68.2 °F 30.05 in ESE 1 mph 1 mph 80% 0.00 in 471 W/m2
10:20 75 °F 68 °F 30.05 in South 1 mph 1 mph 79% 0.00 in 492 W/m2
10:25 75.1 °F 67.8 °F 30.05 in SE 1 mph 2 mph 78% 0.00 in 504 W/m2
10:30 75.4 °F 67.7 °F 30.05 in West 1 mph 1 mph 77% 0.00 in 524 W/m2
10:35 75.5 °F 67.8 °F 30.05 in SSE 1 mph 1 mph 77% 0.00 in 534 W/m2
10:40 75.6 °F 67.9 °F 30.05 in South 1 mph 1 mph 77% 0.00 in 547 W/m2
10:45 75.8 °F 68.1 °F 30.05 in SSW 1 mph 1 mph 77% 0.00 in 554 W/m2
10:50 75.9 °F 68.2 °F 30.05 in SW 2 mph 2 mph 77% 0.00 in 564 W/m2
10:55 76 °F 67.9 °F 30.05 in West 2 mph 2 mph 76% 0.00 in 577 W/m2
11:00 76.2 °F 68.5 °F 30.05 in SSW 2 mph 3 mph 77% 0.00 in 589 W/m2
11:05 76.3 °F 68.2 °F 30.05 in NW 2 mph 3 mph 76% 0.00 in 599 W/m2
11:10 76.5 °F 68.4 °F 30.05 in South 1 mph 2 mph 76% 0.00 in 610 W/m2
11:15 76.6 °F 68.8 °F 30.04 in SSW 2 mph 2 mph 77% 0.00 in 619 W/m2
11:20 76.7 °F 68.9 °F 30.04 in NW 2 mph 2 mph 77% 0.00 in 631 W/m2
11:25 76.8 °F 69 °F 30.04 in South 2 mph 2 mph 77% 0.00 in 643 W/m2
11:30 76.8 °F 69 °F 30.04 in South 2 mph 2 mph 77% 0.00 in 650 W/m2
11:35 77 °F 69.6 °F 30.04 in SW 2 mph 2 mph 78% 0.00 in 659 W/m2
11:40 77.1 °F 69.7 °F 30.04 in SSE 2 mph 2 mph 78% 0.00 in 666 W/m2
11:45 77.1 °F 69.7 °F 30.04 in SSE 2 mph 3 mph 78% 0.00 in 675 W/m2
11:50 77.1 °F 70.1 °F 30.05 in WSW 2 mph 3 mph 79% 0.00 in 684 W/m2
11:55 77.1 °F 70.1 °F 30.04 in WSW 2 mph 3 mph 79% 0.00 in 693 W/m2
12:00 77.3 °F 70.3 °F 30.04 in South 3 mph 3 mph 79% 0.00 in 698 W/m2
12:05 77.4 °F 70.4 °F 30.04 in SW 3 mph 4 mph 79% 0.00 in 705 W/m2
12:10 77.6 °F 70.6 °F 30.04 in SW 3 mph 3 mph 79% 0.00 in 715 W/m2
12:15 77.8 °F 70.8 °F 30.04 in East 3 mph 3 mph 79% 0.00 in 731 W/m2
12:20 77.9 °F 70.9 °F 30.04 in SW 3 mph 3 mph 79% 0.00 in 740 W/m2
12:25 78.1 °F 71.1 °F 30.04 in SSW 3 mph 3 mph 79% 0.00 in 740 W/m2
12:30 78.2 °F 70.8 °F 30.04 in West 3 mph 3 mph 78% 0.00 in 747 W/m2
12:35 78.5 °F 71.1 °F 30.04 in SSW 3 mph 3 mph 78% 0.00 in 749 W/m2
12:40 78.7 °F 71.3 °F 30.04 in SSW 3 mph 4 mph 78% 0.00 in 749 W/m2
12:45 78.8 °F 71.4 °F 30.04 in South 2 mph 4 mph 78% 0.00 in 751 W/m2
12:50 79 °F 71.2 °F 30.04 in SW 2 mph 3 mph 77% 0.00 in 752 W/m2
12:55 79.2 °F 71.7 °F 30.04 in South 2 mph 3 mph 78% 0.00 in 756 W/m2
13:00 79.5 °F 71.7 °F 30.04 in NNE 2 mph 2 mph 77% 0.00 in 759 W/m2
13:05 79.7 °F 71.8 °F 30.04 in NNE 2 mph 2 mph 77% 0.00 in 759 W/m2
13:10 79.8 °F 71.6 °F 30.03 in West 2 mph 2 mph 76% 0.00 in 759 W/m2
13:15 79.6 °F 71 °F 30.03 in NNE 2 mph 2 mph 75% 0.00 in 768 W/m2
13:20 79.9 °F 72 °F 30.03 in NW 2 mph 6 mph 77% 0.00 in 768 W/m2
13:25 79.5 °F 71.3 °F 30.03 in NE 3 mph 6 mph 76% 0.00 in 772 W/m2
13:30 79.6 °F 70.6 °F 30.03 in East 4 mph 4 mph 74% 0.00 in 770 W/m2
13:35 79.4 °F 70.8 °F 30.03 in NE 3 mph 4 mph 75% 0.00 in 770 W/m2
13:40 79.7 °F 71.5 °F 30.03 in North 2 mph 2 mph 76% 0.00 in 773 W/m2
13:45 79.9 °F 70.5 °F 30.03 in ENE 2 mph 3 mph 73% 0.00 in 775 W/m2
13:50 79.9 °F 70.5 °F 30.03 in ENE 2 mph 2 mph 73% 0.00 in 773 W/m2
13:55 80 °F 70.2 °F 30.03 in NNW 2 mph 2 mph 72% 0.00 in 773 W/m2
14:00 79.9 °F 69.7 °F 30.03 in NE 2 mph 2 mph 71% 0.00 in 772 W/m2
14:05 80.3 °F 70 °F 30.03 in NNE 2 mph 2 mph 71% 0.00 in 772 W/m2
14:10 80.6 °F 69.9 °F 30.03 in East 1 mph 1 mph 70% 0.00 in 768 W/m2
14:15 81.1 °F 70 °F 30.03 in North 1 mph 2 mph 69% 0.00 in 770 W/m2
14:20 80.4 °F 69.3 °F 30.02 in ENE 2 mph 2 mph 69% 0.00 in 766 W/m2
14:25 80.8 °F 70.1 °F 30.02 in East 2 mph 2 mph 70% 0.00 in 766 W/m2
14:30 80.5 °F 71.4 °F 30.02 in SSW 1 mph 1 mph 74% 0.00 in 766 W/m2
14:35 80.2 °F 71.2 °F 30.02 in SE 1 mph 2 mph 74% 0.00 in 763 W/m2
14:40 79.8 °F 71.6 °F 30.02 in South 2 mph 3 mph 76% 0.00 in 761 W/m2
14:45 79.9 °F 71.3 °F 30.02 in East 1 mph 3 mph 75% 0.00 in 756 W/m2
14:50 80.1 °F 69.8 °F 30.01 in NE 1 mph 1 mph 71% 0.00 in 749 W/m2
14:55 80.2 °F 69.9 °F 30.01 in NE 1 mph 1 mph 71% 0.00 in 742 W/m2
15:00 80.3 °F 70 °F 30.01 in SE 1 mph 1 mph 71% 0.00 in 733 W/m2
15:05 80.2 °F 69.9 °F 30.01 in NE 1 mph 2 mph 71% 0.00 in 731 W/m2
15:10 80.4 °F 70.1 °F 30.01 in ENE 1 mph 1 mph 71% 0.00 in 726 W/m2
15:15 80.6 °F 70.7 °F 30.01 in ENE 1 mph 1 mph 72% 0.00 in 722 W/m2
15:20 80.7 °F 71.6 °F 30.01 in South 1 mph 2 mph 74% 0.00 in 738 W/m2
15:25 80.5 °F 71.4 °F 30.01 in NE 1 mph 2 mph 74% 0.00 in 777 W/m2
15:30 80.3 °F 71.3 °F 30.01 in NW 1 mph 3 mph 74% 0.00 in 229 W/m2
15:35 80.4 °F 70.1 °F 30.01 in NNW 2 mph 3 mph 71% 0.00 in 656 W/m2
15:40 80.5 °F 69.8 °F 30.00 in NNW 2 mph 2 mph 70% 0.00 in 700 W/m2
15:45 80.7 °F 70.4 °F 30.00 in North 2 mph 3 mph 71% 0.00 in 679 W/m2
15:50 80.8 °F 70.1 °F 30.00 in WNW 2 mph 2 mph 70% 0.00 in 670 W/m2
15:55 81 °F 70.3 °F 30.00 in South 2 mph 2 mph 70% 0.00 in 663 W/m2
16:00 81.3 °F 70.2 °F 30.00 in East 1 mph 1 mph 69% 0.00 in 663 W/m2
16:05 81.5 °F 70.3 °F 30.00 in SW 2 mph 2 mph 69% 0.00 in 645 W/m2
16:10 81.8 °F 70.6 °F 30.00 in NNW 1 mph 1 mph 69% 0.00 in 633 W/m2
16:15 82 °F 71.2 °F 30.00 in ESE 1 mph 1 mph 70% 0.00 in 622 W/m2
16:20 82.2 °F 70.1 °F 29.99 in NW 1 mph 2 mph 67% 0.00 in 615 W/m2
16:25 82.6 °F 71 °F 29.99 in NNE 1 mph 2 mph 68% 0.00 in 605 W/m2
16:30 82.7 °F 71.1 °F 29.99 in NNE 1 mph 1 mph 68% 0.00 in 592 W/m2
16:35 83 °F 71.3 °F 29.99 in North 1 mph 1 mph 68% 0.00 in 580 W/m2
16:40 83.3 °F 70.3 °F 29.99 in ESE 1 mph 1 mph 65% 0.00 in 570 W/m2
16:45 82.4 °F 69 °F 29.98 in SE 1 mph 2 mph 64% 0.00 in 563 W/m2
16:50 81.5 °F 69.9 °F 29.98 in East 1 mph 1 mph 68% 0.00 in 552 W/m2
16:55 81.3 °F 69.7 °F 29.98 in ESE 1 mph 2 mph 68% 0.00 in 540 W/m2
17:00 81.4 °F 69.4 °F 29.98 in SE 1 mph 1 mph 67% 0.00 in 529 W/m2
17:05 81.6 °F 68.7 °F 29.98 in East 1 mph 1 mph 65% 0.00 in 515 W/m2
17:10 81.8 °F 68.4 °F 29.98 in ESE 1 mph 1 mph 64% 0.00 in 503 W/m2
17:15 82 °F 68.6 °F 29.98 in SSE 1 mph 1 mph 64% 0.00 in 489 W/m2
17:20 81.8 °F 71.1 °F 29.98 in NNE 1 mph 1 mph 70% 0.00 in 476 W/m2
17:25 81.2 °F 71.3 °F 29.98 in ENE 2 mph 3 mph 72% 0.00 in 464 W/m2
17:30 81.2 °F 71.7 °F 29.98 in ENE 2 mph 2 mph 73% 0.00 in 450 W/m2
17:35 81.3 °F 71.4 °F 29.98 in NE 2 mph 2 mph 72% 0.00 in 432 W/m2
17:40 81.5 °F 71.6 °F 29.98 in South 2 mph 2 mph 72% 0.00 in 418 W/m2
17:45 81.5 °F 71.6 °F 29.98 in SE 1 mph 2 mph 72% 0.00 in 406 W/m2
17:50 81.6 °F 72.1 °F 29.97 in NE 1 mph 1 mph 73% 0.00 in 392 W/m2
17:55 81.4 °F 71.5 °F 29.97 in North 2 mph 2 mph 72% 0.00 in 380 W/m2
18:00 81.4 °F 71.1 °F 29.97 in NE 1 mph 1 mph 71% 0.00 in 369 W/m2
18:05 81.3 °F 71.4 °F 29.97 in NE 1 mph 2 mph 72% 0.00 in 357 W/m2
18:10 81.2 °F 71.7 °F 29.97 in East 1 mph 4 mph 73% 0.00 in 343 W/m2
18:15 81 °F 71.1 °F 29.97 in East 2 mph 4 mph 72% 0.00 in 329 W/m2
18:20 80.7 °F 71.6 °F 29.97 in NE 2 mph 2 mph 74% 0.00 in 313 W/m2
18:25 80.3 °F 71.6 °F 29.97 in East 2 mph 2 mph 75% 0.00 in 267 W/m2
18:30 80 °F 71.4 °F 29.97 in North 2 mph 2 mph 75% 0.00 in 116 W/m2
18:35 79.8 °F 71.6 °F 29.97 in East 2 mph 2 mph 76% 0.00 in 200 W/m2
18:40 79.6 °F 71.4 °F 29.97 in NNW 2 mph 2 mph 76% 0.00 in 214 W/m2
18:45 79.5 °F 71.3 °F 29.97 in ESE 2 mph 2 mph 76% 0.00 in 65 W/m2
18:50 79.3 °F 71.1 °F 29.97 in NE 2 mph 3 mph 76% 0.00 in 58 W/m2
18:55 79 °F 70.4 °F 29.97 in NNE 2 mph 3 mph 75% 0.00 in 56 W/m2
19:00 78.9 °F 70.7 °F 29.96 in NNE 2 mph 2 mph 76% 0.00 in 58 W/m2
19:05 78.7 °F 70.5 °F 29.96 in ENE 2 mph 2 mph 76% 0.00 in 58 W/m2
19:10 78.7 °F 70.1 °F 29.96 in North 2 mph 2 mph 75% 0.00 in 60 W/m2
19:15 78.5 °F 70.3 °F 29.96 in NE 2 mph 2 mph 76% 0.00 in 60 W/m2
19:20 78.5 °F 69.9 °F 29.96 in East 2 mph 2 mph 75% 0.00 in 54 W/m2
19:25 78.3 °F 70.1 °F 29.96 in NE 2 mph 4 mph 76% 0.00 in 51 W/m2
19:30 78.2 °F 69.6 °F 29.96 in NE 1 mph 1 mph 75% 0.00 in 44 W/m2
19:35 78.2 °F 70 °F 29.96 in East 1 mph 1 mph 76% 0.00 in 58 W/m2
19:40 78.1 °F 69.9 °F 29.96 in NNE 1 mph 2 mph 76% 0.00 in 88 W/m2
19:45 78.2 °F 70 °F 29.96 in East 1 mph 2 mph 76% 0.00 in 35 W/m2
19:50 78.1 °F 69.9 °F 29.96 in North 1 mph 1 mph 76% 0.00 in 33 W/m2
19:55 78.2 °F 70 °F 29.96 in East 1 mph 1 mph 76% 0.00 in 30 W/m2
20:00 78 °F 69.4 °F 29.96 in ESE 1 mph 1 mph 75% 0.00 in 30 W/m2
20:05 78 °F 69 °F 29.96 in ESE 1 mph 2 mph 74% 0.00 in 28 W/m2
20:10 78 °F 69 °F 29.96 in ESE 1 mph 2 mph 74% 0.00 in 25 W/m2
20:15 77.9 °F 68.5 °F 29.96 in East 1 mph 2 mph 73% 0.00 in 19 W/m2
20:20 77.9 °F 68.5 °F 29.96 in ENE 1 mph 1 mph 73% 0.00 in 16 W/m2
20:25 77.8 °F 68.8 °F 29.95 in NE 1 mph 2 mph 74% 0.00 in 11 W/m2
20:30 77.7 °F 68.7 °F 29.95 in NE 1 mph 1 mph 74% 0.00 in 7 W/m2
20:35 77.6 °F 68.7 °F 29.96 in North 1 mph 1 mph 74% 0.00 in 5 W/m2
20:40 77.5 °F 68.9 °F 29.96 in NE 1 mph 1 mph 75% 0.00 in 0 W/m2
20:45 77.5 °F 68.9 °F 29.96 in East 1 mph 1 mph 75% 0.00 in 0 W/m2
20:50 77.3 °F 68.8 °F 29.96 in NE 1 mph 1 mph 75% 0.00 in 0 W/m2
20:55 77.3 °F 69.1 °F 29.96 in East 1 mph 3 mph 76% 0.00 in 0 W/m2
21:00 77.2 °F 69 °F 29.96 in ENE 2 mph 2 mph 76% 0.00 in 0 W/m2
21:05 77.1 °F 68.9 °F 29.97 in East 1 mph 2 mph 76% 0.00 in 0 W/m2
21:10 76.9 °F 69.1 °F 29.97 in ENE 1 mph 2 mph 77% 0.00 in 0 W/m2
21:15 76.8 °F 69 °F 29.97 in NE 1 mph 3 mph 77% 0.00 in 0 W/m2
21:20 76.6 °F 69.2 °F 29.97 in East 2 mph 2 mph 78% 0.00 in 0 W/m2
21:25 76.5 °F 69.1 °F 29.97 in East 2 mph 2 mph 78% 0.00 in 0 W/m2
21:30 76.4 °F 69 °F 29.97 in ENE 1 mph 2 mph 78% 0.00 in 0 W/m2
21:35 76.4 °F 69.4 °F 29.98 in ESE 1 mph 2 mph 79% 0.00 in 0 W/m2
21:40 76.4 °F 70.1 °F 29.98 in East 1 mph 1 mph 81% 0.00 in 0 W/m2
21:45 76.6 °F 70.7 °F 29.98 in NE 1 mph 1 mph 82% 0.00 in 0 W/m2
21:50 76.6 °F 70.3 °F 29.98 in East 1 mph 2 mph 81% 0.00 in 0 W/m2
21:55 76.7 °F 70.8 °F 29.98 in ESE 1 mph 2 mph 82% 0.00 in 0 W/m2
22:00 76.5 °F 70.2 °F 29.98 in East 2 mph 2 mph 81% 0.00 in 0 W/m2
22:05 76.5 °F 70.2 °F 29.98 in ESE 1 mph 2 mph 81% 0.00 in 0 W/m2
22:10 76.4 °F 70.1 °F 29.98 in SE 2 mph 2 mph 81% 0.00 in 0 W/m2
22:15 76.4 °F 70.1 °F 29.98 in South 2 mph 2 mph 81% 0.00 in 0 W/m2
22:20 76.2 °F 69.6 °F 29.98 in East 1 mph 2 mph 80% 0.00 in 0 W/m2
22:25 76.2 °F 70.3 °F 29.98 in SE 1 mph 2 mph 82% 0.00 in 0 W/m2
22:30 76.1 °F 69.8 °F 29.98 in ESE 1 mph 3 mph 81% 0.00 in 0 W/m2
22:35 76 °F 69.7 °F 29.98 in ESE 1 mph 3 mph 81% 0.00 in 0 W/m2
22:40 75.9 °F 69.6 °F 29.98 in ESE 1 mph 2 mph 81% 0.00 in 0 W/m2
22:45 75.9 °F 69.6 °F 29.98 in NE 1 mph 2 mph 81% 0.00 in 0 W/m2
22:50 75.7 °F 69.5 °F 29.98 in NE 1 mph 1 mph 81% 0.00 in 0 W/m2
22:55 75.6 °F 69.4 °F 29.98 in SE 1 mph 1 mph 81% 0.00 in 0 W/m2
23:00 75.6 °F 69.7 °F 29.98 in East 1 mph 1 mph 82% 0.00 in 0 W/m2
23:05 75.4 °F 69.2 °F 29.98 in East 1 mph 1 mph 81% 0.00 in 0 W/m2
23:10 75.4 °F 69.2 °F 29.98 in East 1 mph 2 mph 81% 0.00 in 0 W/m2
23:15 75.2 °F 69 °F 29.98 in SE 1 mph 2 mph 81% 0.00 in 0 W/m2
23:20 75.2 °F 69 °F 29.98 in NE 1 mph 1 mph 81% 0.00 in 0 W/m2
23:25 75.2 °F 69 °F 29.98 in East 1 mph 1 mph 81% 0.00 in 0 W/m2
23:30 75.2 °F 69 °F 29.97 in ENE 1 mph 1 mph 81% 0.00 in 0 W/m2
23:35 75.2 °F 68.6 °F 29.97 in NE 1 mph 1 mph 80% 0.00 in 0 W/m2
23:40 75.1 °F 68.1 °F 29.97 in East 1 mph 1 mph 79% 0.00 in 0 W/m2
23:45 75.2 °F 69 °F 29.97 in ESE 1 mph 1 mph 81% 0.00 in 0 W/m2
23:50 75.2 °F 68.6 °F 29.97 in North 1 mph 1 mph 80% 0.00 in 0 W/m2
23:55 75.3 °F 69.4 °F 29.97 in NNE 1 mph 1 mph 82% 0.00 in 0 W/m2
Sand Point, Michigan, USA
Compliments of Weather Underground - 2 mb